Time;durP1;ratioP1;P1;durP2;ratioP2;P2;SDS_P1;SDS_P2;PMS_P1;PMS_P2;Temp;Humidity;BMP_temperature;BMP_pressure;BME280_temperature;BME280_humidity;BME280_pressure;Samples;Min_cycle;Max_cycle;Signal;HPM_P1;HPM_P2
2021/10/20 00:01:04;;;;;;;;;9.50;8.25;;;;;16.81;61.40;100704.88;5076406;28;69659;-60
2021/10/20 00:03:29;;;;;;;;;11.00;10.00;;;;;16.81;61.64;100701.41;5077270;27;45384;-61
2021/10/20 00:05:57;;;;;;;;;10.50;9.50;;;;;16.80;61.82;100710.38;5077266;28;48696;-62
2021/10/20 00:08:23;;;;;;;;;11.25;9.75;;;;;16.78;61.86;100699.91;5077359;28;45227;-61
2021/10/20 00:10:48;;;;;;;;;10.25;8.00;;;;;16.76;61.92;100704.56;5077009;27;46460;-61
2021/10/20 00:13:13;;;;;;;;;9.00;7.00;;;;;16.75;62.09;100700.25;5076257;28;65608;-61
2021/10/20 00:15:39;;;;;;;;;10.25;10.25;;;;;16.74;62.24;100698.59;5076781;28;45675;-61
2021/10/20 00:18:04;;;;;;;;;10.25;8.00;;;;;16.71;62.41;100704.25;5077039;28;45370;-61
2021/10/20 00:20:30;;;;;;;;;9.00;8.25;;;;;16.70;62.53;100698.13;5076838;28;46021;-60
2021/10/20 00:22:56;;;;;;;;;10.25;7.00;;;;;16.67;62.71;100697.66;5076603;28;45900;-61
2021/10/20 00:25:21;;;;;;;;;9.75;8.75;;;;;16.66;62.81;100696.81;5076970;28;45402;-61
2021/10/20 00:27:47;;;;;;;;;8.50;7.50;;;;;16.63;62.90;100688.41;5075670;28;45234;-61
2021/10/20 00:30:13;;;;;;;;;7.00;6.50;;;;;16.59;63.13;100678.13;5075350;28;46495;-60
2021/10/20 00:32:38;;;;;;;;;9.25;7.75;;;;;16.56;63.38;100682.94;5076748;28;45231;-61
2021/10/20 00:35:04;;;;;;;;;7.25;7.25;;;;;16.52;63.17;100673.66;5076245;27;59650;-61
2021/10/20 00:37:30;;;;;;;;;11.75;8.50;;;;;16.52;63.23;100668.38;5075769;28;45539;-61
2021/10/20 00:39:55;;;;;;;;;7.75;7.50;;;;;16.53;63.34;100667.38;5075728;28;68435;-61
2021/10/20 00:42:23;;;;;;;;;12.00;9.00;;;;;16.51;63.41;100661.41;5076647;28;45736;-61
2021/10/20 00:44:51;;;;;;;;;12.00;10.25;;;;;16.50;63.57;100670.34;5076814;27;45512;-61
2021/10/20 00:47:17;;;;;;;;;10.00;6.25;;;;;16.46;63.67;100662.75;5076691;28;45389;-61
2021/10/20 00:49:43;;;;;;;;;12.00;8.25;;;;;16.44;63.74;100661.28;5076399;28;48352;-60
2021/10/20 00:52:08;;;;;;;;;10.25;9.25;;;;;16.41;63.69;100658.97;5075129;28;45451;-61
2021/10/20 00:54:34;;;;;;;;;10.75;9.75;;;;;16.38;63.69;100651.34;5076651;28;45376;-61
2021/10/20 00:57:00;;;;;;;;;9.00;8.25;;;;;16.36;63.86;100651.53;5076590;28;45279;-61
2021/10/20 00:59:25;;;;;;;;;11.75;8.00;;;;;16.32;64.16;100650.22;5057571;28;67266;-61
2021/10/20 01:01:50;;;;;;;;;12.25;8.00;;;;;16.28;63.88;100635.66;5075454;28;70263;-60
2021/10/20 01:04:16;;;;;;;;;10.75;7.75;;;;;16.26;64.32;100640.31;5075837;28;59451;-61
2021/10/20 01:06:41;;;;;;;;;10.25;8.75;;;;;16.24;64.28;100639.66;5079897;28;45548;-61
2021/10/20 01:09:07;;;;;;;;;10.25;9.25;;;;;16.24;63.77;100629.03;5079532;28;63647;-61
2021/10/20 01:11:32;;;;;;;;;9.75;9.00;;;;;16.23;63.75;100627.38;5078994;27;65772;-61
2021/10/20 01:13:57;;;;;;;;;11.25;9.50;;;;;16.25;63.90;100628.03;5080084;28;45619;-61
2021/10/20 01:16:23;;;;;;;;;11.00;9.75;;;;;16.27;63.51;100620.75;5079391;27;60215;-61
2021/10/20 01:18:48;;;;;;;;;12.25;9.75;;;;;16.27;63.51;100629.50;5079699;28;45350;-61
2021/10/20 01:21:18;;;;;;;;;12.25;10.75;;;;;16.27;63.52;100626.84;5078572;27;45327;-61
2021/10/20 01:23:45;;;;;;;;;9.75;8.25;;;;;16.26;63.53;100629.69;5079666;27;45354;-61
2021/10/20 01:26:11;;;;;;;;;12.50;11.00;;;;;16.25;63.59;100620.91;5078676;27;45482;-61
2021/10/20 01:28:36;;;;;;;;;10.25;8.00;;;;;16.27;63.73;100612.78;5078847;28;69938;-61
2021/10/20 01:31:01;;;;;;;;;9.50;9.50;;;;;16.28;63.17;100598.53;5079647;27;45950;-61
2021/10/20 01:33:27;;;;;;;;;9.75;9.75;;;;;16.29;63.47;100594.88;5079050;28;61531;-61
2021/10/20 01:35:52;;;;;;;;;12.25;9.75;;;;;16.31;63.41;100595.53;5078981;27;64033;-61
2021/10/20 01:38:17;;;;;;;;;11.00;11.00;;;;;16.32;63.12;100595.34;5078679;27;66111;-61
2021/10/20 01:40:43;;;;;;;;;11.50;9.25;;;;;16.34;63.20;100591.72;5078984;28;61463;-60
2021/10/20 01:43:08;;;;;;;;;10.75;10.25;;;;;16.36;63.21;100585.25;5079219;28;48746;-61
2021/10/20 01:45:34;;;;;;;;;11.00;9.00;;;;;16.35;63.37;100577.44;5078536;28;68517;-61
2021/10/20 01:47:59;;;;;;;;;11.25;8.75;;;;;16.36;63.08;100584.41;5079390;27;45355;-62
2021/10/20 01:50:24;;;;;;;;;10.25;9.50;;;;;16.37;62.94;100576.28;5078822;27;57957;-61
2021/10/20 01:52:50;;;;;;;;;12.00;10.75;;;;;16.38;63.38;100577.94;5078397;27;45708;-61
2021/10/20 01:55:16;;;;;;;;;12.25;10.25;;;;;16.39;63.22;100578.75;5078974;27;54361;-61
2021/10/20 01:57:42;;;;;;;;;11.00;8.25;;;;;16.39;63.27;100562.84;5077913;27;45382;-61
2021/10/20 02:00:08;;;;;;;;;10.50;10.25;;;;;16.39;63.45;100563.69;5077967;28;45813;-61
2021/10/20 02:02:34;;;;;;;;;10.00;9.00;;;;;16.41;63.39;100552.91;5079262;28;45227;-61
2021/10/20 02:04:59;;;;;;;;;11.25;10.25;;;;;16.39;63.68;100547.78;5078621;27;60779;-60
2021/10/20 02:07:26;;;;;;;;;11.00;10.25;;;;;16.40;63.25;100548.59;5078248;28;69589;-60
2021/10/20 02:09:51;;;;;;;;;7.00;7.00;;;;;16.41;63.39;100540.47;5077820;28;45885;-61
2021/10/20 02:12:17;;;;;;;;;9.50;9.00;;;;;16.42;63.52;100534.16;5078359;27;64034;-61
2021/10/20 02:14:42;;;;;;;;;11.25;9.25;;;;;16.42;63.47;100517.41;5079125;28;45577;-61
2021/10/20 02:17:07;;;;;;;;;9.25;8.00;;;;;16.42;63.70;100520.91;5077959;28;66702;-61
2021/10/20 02:19:33;;;;;;;;;10.25;10.00;;;;;16.43;63.73;100517.22;5078775;28;45478;-61
2021/10/20 02:21:58;;;;;;;;;13.00;10.25;;;;;16.46;63.54;100516.06;5078090;28;59125;-61
2021/10/20 02:24:24;;;;;;;;;11.25;10.75;;;;;16.46;63.67;100508.94;5078600;28;50684;-61
2021/10/20 02:26:49;;;;;;;;;12.25;10.75;;;;;16.49;63.73;100506.94;5078663;27;46458;-61
2021/10/20 02:29:14;;;;;;;;;14.00;12.00;;;;;16.51;63.69;100503.13;5077793;28;67598;-61
2021/10/20 02:31:46;;;;;;;;;11.75;10.25;;;;;16.52;63.84;100504.75;5078659;28;45428;-62
2021/10/20 02:34:14;;;;;;;;;12.50;11.50;;;;;16.52;63.95;100499.47;5077555;27;45265;-62
2021/10/20 02:36:40;;;;;;;;;14.00;10.25;;;;;16.54;63.82;100492.16;5060978;28;46339;-61
2021/10/20 02:39:05;;;;;;;;;9.25;8.75;;;;;16.56;63.90;100484.84;5077230;28;45390;-61
2021/10/20 02:41:30;;;;;;;;;11.75;10.75;;;;;16.57;64.04;100478.53;5077966;28;63942;-61
2021/10/20 02:43:56;;;;;;;;;11.50;9.50;;;;;16.58;64.12;100474.88;5077597;28;70151;-61
2021/10/20 02:46:21;;;;;;;;;13.50;11.00;;;;;16.60;63.98;100459.63;5076139;28;71760;-61
2021/10/20 02:48:46;;;;;;;;;13.50;12.00;;;;;16.63;64.00;100445.16;5077732;28;65781;-61
2021/10/20 02:51:12;;;;;;;;;12.25;10.25;;;;;16.65;63.89;100459.06;5078369;27;45425;-61
2021/10/20 02:53:37;;;;;;;;;11.50;9.00;;;;;16.66;63.77;100451.97;5077743;28;61289;-61
2021/10/20 02:56:03;;;;;;;;;12.75;10.25;;;;;16.68;63.95;100448.09;5078312;27;46563;-61
2021/10/20 02:58:28;;;;;;;;;10.50;9.75;;;;;16.69;63.95;100441.81;5078217;28;45429;-61
2021/10/20 03:00:54;;;;;;;;;13.25;11.00;;;;;16.71;63.94;100434.50;5077691;27;62606;-60
2021/10/20 03:03:19;;;;;;;;;12.00;10.75;;;;;16.70;63.82;100438.16;5078444;28;45169;-61
2021/10/20 03:05:44;;;;;;;;;11.25;11.25;;;;;16.71;63.94;100431.00;5078108;28;45236;-61
2021/10/20 03:08:11;;;;;;;;;12.75;10.25;;;;;16.72;63.91;100422.03;5078140;28;45380;-60
2021/10/20 03:10:37;;;;;;;;;11.75;11.00;;;;;16.72;63.69;100417.56;5078358;28;45331;-62
2021/10/20 03:13:02;;;;;;;;;11.50;10.00;;;;;16.72;64.00;100409.59;5076974;28;45238;-61
2021/10/20 03:15:28;;;;;;;;;8.25;8.25;;;;;16.71;63.58;100413.25;5077498;27;56971;-61
2021/10/20 03:17:53;;;;;;;;;12.00;10.25;;;;;16.71;63.61;100418.56;5077164;28;65397;-61
2021/10/20 03:20:19;;;;;;;;;11.25;10.25;;;;;16.71;63.55;100418.56;5078035;27;45318;-60
2021/10/20 03:22:44;;;;;;;;;13.25;12.00;;;;;16.71;63.51;100418.56;5077871;27;45540;-61
2021/10/20 03:25:10;;;;;;;;;12.50;10.00;;;;;16.72;63.14;100428.19;5078030;28;45282;-61
2021/10/20 03:27:46;;;;;;;;;12.25;7.00;;;;;16.72;63.32;100425.53;5077195;28;45337;-61
2021/10/20 03:30:13;;;;;;;;;10.00;8.50;;;;;16.72;63.08;100437.94;5078100;28;45381;-61
2021/10/20 03:32:38;;;;;;;;;11.25;10.25;;;;;16.72;63.16;100436.13;5077708;28;46196;-60
2021/10/20 03:35:04;;;;;;;;;12.25;10.50;;;;;16.72;63.12;100430.84;5076837;28;71835;-62
2021/10/20 03:37:30;;;;;;;;;9.00;8.75;;;;;16.73;62.97;100443.09;5077661;27;45450;-61
2021/10/20 03:39:55;;;;;;;;;8.25;8.25;;;;;16.75;62.96;100437.59;5076708;27;68181;-61
2021/10/20 03:42:20;;;;;;;;;10.25;10.25;;;;;16.74;62.58;100434.13;5077629;28;45228;-61
2021/10/20 03:44:46;;;;;;;;;13.00;12.00;;;;;16.73;62.69;100421.03;5076688;28;66181;-61
2021/10/20 03:47:11;;;;;;;;;8.00;7.75;;;;;16.73;62.68;100424.53;5077562;28;45263;-61
2021/10/20 03:49:37;;;;;;;;;8.75;8.75;;;;;16.72;62.70;100416.72;5075573;28;65340;-61
2021/10/20 03:52:02;;;;;;;;;10.75;9.75;;;;;16.71;62.76;100429.19;5077666;28;45543;-61
2021/10/20 03:54:28;;;;;;;;;10.50;9.00;;;;;16.73;62.65;100424.53;5076989;27;46758;-61
2021/10/20 03:56:53;;;;;;;;;9.50;7.75;;;;;16.72;62.70;100420.22;5076470;28;71099;-61
2021/10/20 03:59:18;;;;;;;;;9.50;9.50;;;;;16.74;62.54;100431.47;5076831;28;59746;-61
2021/10/20 04:01:44;;;;;;;;;9.75;9.50;;;;;16.73;62.49;100424.53;5076708;28;62366;-61
2021/10/20 04:04:09;;;;;;;;;10.50;10.00;;;;;16.75;62.42;100405.75;5075239;27;66659;-61
2021/10/20 04:06:35;;;;;;;;;11.25;9.75;;;;;16.74;62.84;100412.06;5076326;28;70357;-61
2021/10/20 04:09:00;;;;;;;;;11.75;10.25;;;;;16.72;62.48;100420.22;5077371;28;45343;-61
2021/10/20 04:11:25;;;;;;;;;8.00;8.00;;;;;16.72;62.48;100422.88;5077300;28;45456;-62
2021/10/20 04:13:51;;;;;;;;;9.25;9.25;;;;;16.71;62.63;100426.53;5076928;28;45400;-61
2021/10/20 04:16:16;;;;;;;;;9.00;9.00;;;;;16.71;62.71;100412.41;5077205;28;45492;-61
2021/10/20 04:18:42;;;;;;;;;9.75;8.75;;;;;16.72;62.65;100412.25;5076323;27;63455;-61
2021/10/20 04:21:07;;;;;;;;;12.00;9.50;;;;;16.71;62.71;100391.19;5075179;28;62747;-61
2021/10/20 04:23:32;;;;;;;;;12.00;9.25;;;;;16.69;62.69;100378.13;5075566;28;46457;-61
2021/10/20 04:25:58;;;;;;;;;14.75;11.25;;;;;16.68;62.76;100375.66;5076114;28;70486;-61
2021/10/20 04:28:23;;;;;;;;;11.00;10.25;;;;;16.66;62.71;100378.50;5077370;27;45394;-61
2021/10/20 04:30:48;;;;;;;;;11.75;10.75;;;;;16.65;62.96;100378.69;5076479;27;53288;-62
2021/10/20 04:33:14;;;;;;;;;12.75;11.75;;;;;16.62;63.10;100363.94;5075605;27;73339;-61
2021/10/20 04:35:39;;;;;;;;;9.75;9.75;;;;;16.62;62.99;100355.97;5076760;28;45302;-61
2021/10/20 04:38:05;;;;;;;;;10.75;8.25;;;;;16.61;62.99;100373.72;5076016;28;65343;-61
2021/10/20 04:40:30;;;;;;;;;11.75;11.25;;;;;16.63;63.06;100368.25;5075681;27;45342;-61
2021/10/20 04:42:56;;;;;;;;;10.25;8.75;;;;;16.62;63.16;100361.28;5075933;28;64696;-61
2021/10/20 04:45:21;;;;;;;;;12.00;10.50;;;;;16.64;62.95;100353.97;5074676;27;45349;-61
2021/10/20 04:47:46;;;;;;;;;12.75;11.00;;;;;16.64;62.98;100350.50;5076403;27;48815;-61
2021/10/20 04:50:12;;;;;;;;;11.25;11.00;;;;;16.63;63.12;100347.00;5076645;28;45484;-61
2021/10/20 04:52:37;;;;;;;;;10.00;10.00;;;;;16.64;63.04;100347.84;5076165;28;51420;-61
2021/10/20 04:55:04;;;;;;;;;8.50;8.25;;;;;16.62;62.97;100374.53;5076500;27;45311;-61
2021/10/20 04:57:29;;;;;;;;;11.50;9.50;;;;;16.64;62.98;100379.69;5076043;28;45397;-61
2021/10/20 04:59:55;;;;;;;;;10.25;10.25;;;;;16.65;63.01;100376.84;5074440;28;62456;-61
2021/10/20 05:02:20;;;;;;;;;11.50;9.00;;;;;16.62;62.91;100371.91;5075461;28;66803;-61
2021/10/20 05:04:46;;;;;;;;;10.00;9.25;;;;;16.63;63.15;100370.88;5076332;28;45394;-61
2021/10/20 05:07:11;;;;;;;;;10.00;10.00;;;;;16.64;63.18;100390.28;5075361;28;45771;-61
2021/10/20 05:09:38;;;;;;;;;13.00;12.00;;;;;16.63;62.88;100389.47;5075205;28;45499;-61
2021/10/20 05:12:04;;;;;;;;;14.75;10.75;;;;;16.63;63.17;100393.94;5074885;28;45546;-61
2021/10/20 05:14:29;;;;;;;;;12.00;10.25;;;;;16.63;63.15;100389.47;5076249;27;46004;-61
2021/10/20 05:16:55;;;;;;;;;13.25;10.25;;;;;16.63;62.97;100397.41;5076005;27;48376;-61
2021/10/20 05:19:20;;;;;;;;;10.75;10.25;;;;;16.63;63.10;100386.00;5075515;28;59488;-60
2021/10/20 05:21:45;;;;;;;;;12.00;10.25;;;;;16.64;63.15;100366.41;5075003;27;71660;-61
2021/10/20 05:24:11;;;;;;;;;12.25;10.50;;;;;16.64;63.22;100369.06;5075357;28;64963;-61
2021/10/20 05:26:36;;;;;;;;;10.25;9.75;;;;;16.65;63.29;100374.19;5075531;28;64550;-61
2021/10/20 05:29:02;;;;;;;;;11.75;10.50;;;;;16.66;63.01;100373.19;5076150;28;45276;-61
2021/10/20 05:31:27;;;;;;;;;10.25;10.25;;;;;16.64;63.09;100364.59;5076155;28;46479;-61
2021/10/20 05:33:52;;;;;;;;;12.75;11.00;;;;;16.67;63.10;100358.91;5076030;28;45233;-60
2021/10/20 05:36:18;;;;;;;;;12.25;11.25;;;;;16.66;63.09;100359.09;5075230;27;63390;-60
2021/10/20 05:38:43;;;;;;;;;13.75;11.75;;;;;16.65;63.16;100345.00;5075887;28;45330;-62
2021/10/20 05:41:09;;;;;;;;;14.50;12.00;;;;;16.65;63.27;100346.84;5075183;28;70359;-61
2021/10/20 05:43:34;;;;;;;;;9.75;9.75;;;;;16.65;63.38;100355.63;5075863;28;45347;-61
2021/10/20 05:45:59;;;;;;;;;12.25;11.25;;;;;16.66;63.11;100340.53;5075960;28;45306;-61
2021/10/20 05:48:25;;;;;;;;;9.00;9.00;;;;;16.66;63.33;100332.59;5075163;28;60603;-61
2021/10/20 05:50:51;;;;;;;;;12.00;10.00;;;;;16.65;63.11;100337.06;5075276;28;69809;-60
2021/10/20 05:53:16;;;;;;;;;9.00;9.00;;;;;16.65;63.28;100334.41;5079089;28;45315;-61
2021/10/20 05:55:43;;;;;;;;;11.75;10.25;;;;;16.65;63.31;100329.09;5079027;27;51531;-61
2021/10/20 05:58:09;;;;;;;;;11.25;9.50;;;;;16.67;63.35;100311.16;5077672;28;45475;-61
2021/10/20 06:00:34;;;;;;;;;12.50;10.50;;;;;16.67;63.28;100310.34;5078893;27;46166;-61
2021/10/20 06:03:00;;;;;;;;;13.25;11.00;;;;;16.67;63.38;100305.06;5079113;28;45212;-60
2021/10/20 06:05:25;;;;;;;;;13.00;12.00;;;;;16.67;63.30;100310.34;5079176;28;45390;-61
2021/10/20 06:07:51;;;;;;;;;12.75;11.25;;;;;16.66;63.27;100314.81;5078774;27;45941;-61
2021/10/20 06:10:16;;;;;;;;;13.50;11.50;;;;;16.65;63.46;100313.19;5078757;27;45846;-61
2021/10/20 06:12:42;;;;;;;;;14.00;10.75;;;;;16.65;63.43;100321.13;5079015;28;45377;-61
2021/10/20 06:15:07;;;;;;;;;9.75;9.50;;;;;16.65;63.46;100318.47;5078986;28;45465;-61
2021/10/20 06:17:36;;;;;;;;;11.75;8.75;;;;;16.65;63.35;100315.81;5078293;28;61920;-62
2021/10/20 06:20:04;;;;;;;;;11.75;11.00;;;;;16.66;63.43;100314.81;5078667;28;46301;-63
2021/10/20 06:22:29;;;;;;;;;10.25;10.25;;;;;16.66;63.66;100314.00;5077155;28;45369;-63
2021/10/20 06:24:54;;;;;;;;;10.25;10.25;;;;;16.67;63.71;100313.00;5077767;28;45780;-63
2021/10/20 06:27:20;;;;;;;;;11.00;11.00;;;;;16.67;63.41;100303.22;5078948;28;45536;-61
2021/10/20 06:29:45;;;;;;;;;11.25;9.75;;;;;16.68;63.66;100290.78;5078480;27;45381;-60
2021/10/20 06:32:11;;;;;;;;;10.00;10.00;;;;;16.69;63.63;100287.13;5078560;28;45274;-60
2021/10/20 06:34:36;;;;;;;;;10.75;9.25;;;;;16.69;63.51;100269.38;5077952;27;61479;-61
2021/10/20 06:37:02;;;;;;;;;12.50;11.25;;;;;16.70;63.78;100263.06;5077654;27;61784;-60
2021/10/20 06:39:27;;;;;;;;;10.75;10.75;;;;;16.70;63.56;100265.72;5078190;28;46480;-61
2021/10/20 06:41:53;;;;;;;;;18.50;14.75;;;;;16.71;63.61;100254.09;5076766;28;45262;-61
2021/10/20 06:44:18;;;;;;;;;10.00;9.50;;;;;16.71;63.61;100264.69;5078480;27;45152;-61
2021/10/20 06:46:44;;;;;;;;;15.25;13.25;;;;;16.72;63.59;100286.72;5078537;28;45544;-61
2021/10/20 06:49:09;;;;;;;;;18.75;11.50;;;;;16.71;63.86;100283.28;5077944;27;45353;-60
2021/10/20 06:51:34;;;;;;;;;13.75;13.75;;;;;16.71;64.05;100279.78;5077401;27;57930;-60
2021/10/20 06:54:00;;;;;;;;;11.50;10.75;;;;;16.70;63.89;100271.00;5078179;28;45297;-60
2021/10/20 06:56:25;;;;;;;;;14.00;10.75;;;;;16.71;64.05;100269.16;5078289;28;45414;-60
2021/10/20 06:58:51;;;;;;;;;7.75;7.50;;;;;16.71;64.03;100263.84;5077342;27;67130;-60
2021/10/20 07:01:16;;;;;;;;;12.50;9.00;;;;;16.70;64.00;100267.53;5077332;28;66366;-60
2021/10/20 07:03:43;;;;;;;;;10.50;10.25;;;;;16.70;64.37;100264.88;5077318;28;45437;-61
2021/10/20 07:06:08;;;;;;;;;11.00;10.25;;;;;16.69;64.69;100257.94;5078428;28;45584;-61
2021/10/20 07:08:33;;;;;;;;;11.25;11.25;;;;;16.70;64.71;100267.53;5078004;28;45390;-61
2021/10/20 07:10:59;;;;;;;;;12.50;10.75;;;;;16.69;65.11;100266.72;5076551;28;48087;-60
2021/10/20 07:13:24;;;;;;;;;13.50;12.25;;;;;16.69;65.46;100248.13;5078147;28;45670;-60
2021/10/20 07:15:50;;;;;;;;;12.25;10.50;;;;;16.66;65.82;100239.75;5077111;28;67824;-60
2021/10/20 07:18:16;;;;;;;;;17.25;13.00;;;;;16.62;66.13;100244.56;5077739;28;45338;-61
2021/10/20 07:20:41;;;;;;;;;11.25;11.00;;;;;16.59;66.27;100234.31;5077671;27;45330;-60
2021/10/20 07:23:06;;;;;;;;;11.25;10.50;;;;;16.58;66.77;100227.38;5075263;28;64188;-60
2021/10/20 07:25:32;;;;;;;;;13.50;11.50;;;;;16.55;66.83;100238.34;5077122;28;59189;-61
2021/10/20 07:27:57;;;;;;;;;12.25;12.25;;;;;16.52;67.15;100228.09;5076793;27;68642;-60
2021/10/20 07:30:22;;;;;;;;;12.75;12.75;;;;;16.48;67.24;100217.06;5077090;28;54814;-61
2021/10/20 07:32:48;;;;;;;;;12.00;11.00;;;;;16.43;67.37;100233.50;5077832;28;45552;-60
2021/10/20 07:35:15;;;;;;;;;14.50;12.50;;;;;16.40;67.60;100217.13;5077692;28;45330;-60
2021/10/20 07:37:41;;;;;;;;;11.00;10.75;;;;;16.39;67.74;100207.53;5076189;27;46231;-61
2021/10/20 07:40:07;;;;;;;;;12.25;11.25;;;;;16.37;68.02;100228.09;5077204;28;45318;-60
2021/10/20 07:42:39;;;;;;;;;15.75;12.75;;;;;16.35;68.01;100214.19;5077555;28;45326;-60
2021/10/20 07:45:06;;;;;;;;;13.75;12.00;;;;;16.32;68.10;100220.72;5077540;28;45632;-61
2021/10/20 07:47:32;;;;;;;;;10.25;10.25;;;;;16.30;68.05;100226.16;5076738;28;46407;-60
2021/10/20 07:49:57;;;;;;;;;14.50;14.00;;;;;16.28;68.24;100220.22;5077345;28;45560;-61
2021/10/20 07:52:25;;;;;;;;;20.50;15.00;;;;;16.29;68.50;100226.38;5077410;28;45397;-61
2021/10/20 07:54:51;;;;;;;;;14.50;12.75;;;;;16.28;68.41;100230.84;5075494;28;45368;-61
2021/10/20 07:57:17;;;;;;;;;14.00;12.00;;;;;16.29;68.54;100235.13;5075751;28;46527;-61
2021/10/20 07:59:42;;;;;;;;;12.50;11.75;;;;;16.28;68.75;100245.94;5072681;28;45433;-60
2021/10/20 08:02:07;;;;;;;;;13.25;11.00;;;;;16.29;68.81;100252.88;5075512;28;63960;-60
2021/10/20 08:04:33;;;;;;;;;13.50;12.75;;;;;16.30;68.81;100258.00;5075788;28;45534;-60
2021/10/20 08:06:58;;;;;;;;;11.50;11.50;;;;;16.31;68.92;100270.25;5074539;28;46232;-61
2021/10/20 08:09:24;;;;;;;;;16.25;15.25;;;;;16.34;69.00;100258.47;5073634;28;63470;-60
2021/10/20 08:11:49;;;;;;;;;13.50;13.50;;;;;16.38;69.40;100264.22;5075164;28;62674;-61
2021/10/20 08:14:14;;;;;;;;;14.50;13.75;;;;;16.40;69.18;100296.69;5075369;28;48144;-61
2021/10/20 08:16:40;;;;;;;;;15.75;12.25;;;;;16.42;69.05;100269.00;5075579;27;45380;-61
2021/10/20 08:19:05;;;;;;;;;16.25;14.25;;;;;16.43;69.46;100262.66;5075602;27;45263;-61
2021/10/20 08:21:30;;;;;;;;;15.75;15.50;;;;;16.44;69.38;100251.03;5075555;28;45430;-62
2021/10/20 08:23:56;;;;;;;;;11.50;10.25;;;;;16.44;69.32;100261.66;5073476;28;61498;-61
2021/10/20 08:26:21;;;;;;;;;20.50;17.50;;;;;16.46;69.20;100264.94;5074826;28;67289;-61
2021/10/20 08:28:47;;;;;;;;;13.75;12.00;;;;;16.49;69.28;100252.34;5073951;28;45344;-61
2021/10/20 08:31:12;;;;;;;;;13.75;13.25;;;;;16.50;69.36;100265.44;5075496;28;45465;-61
2021/10/20 08:33:37;;;;;;;;;14.50;11.00;;;;;16.50;69.38;100268.09;5071621;28;45434;-61
2021/10/20 08:36:03;;;;;;;;;13.75;12.25;;;;;16.53;69.47;100273.03;5075379;28;45485;-62
2021/10/20 08:38:28;;;;;;;;;17.00;15.75;;;;;16.55;69.69;100286.09;5075521;28;45496;-60
2021/10/20 08:40:55;;;;;;;;;14.50;11.75;;;;;16.58;69.38;100280.41;5071170;28;64155;-61
2021/10/20 08:43:20;;;;;;;;;11.50;11.50;;;;;16.60;69.30;100284.56;5073767;28;45199;-62
2021/10/20 08:45:46;;;;;;;;;13.75;12.75;;;;;16.61;69.25;100259.69;5074447;28;64901;-61
2021/10/20 08:48:18;;;;;;;;;15.75;14.25;;;;;16.66;69.24;100259.13;5074038;28;45432;-61
2021/10/20 08:50:44;;;;;;;;;15.50;12.75;;;;;16.69;69.18;100269.38;5075512;27;45485;-61
2021/10/20 08:53:10;;;;;;;;;15.50;15.00;;;;;16.73;69.50;100270.66;5056657;28;45479;-62
2021/10/20 08:55:35;;;;;;;;;15.00;14.25;;;;;16.77;69.28;100269.28;5074155;28;68353;-62
2021/10/20 08:58:00;;;;;;;;;16.25;13.75;;;;;16.82;69.11;100275.88;5075108;27;45201;-61
2021/10/20 09:00:26;;;;;;;;;14.25;12.00;;;;;16.85;69.30;100280.81;5075142;28;45359;-62
2021/10/20 09:02:51;;;;;;;;;13.00;12.75;;;;;16.87;69.19;100284.91;5056709;28;45190;-61
2021/10/20 09:05:27;;;;;;;;;11.75;11.75;;;;;16.90;69.20;100287.19;5074314;28;45513;-61
2021/10/20 09:07:54;;;;;;;;;13.50;12.75;;;;;16.93;69.24;100286.03;5075119;28;45378;-61
2021/10/20 09:10:19;;;;;;;;;15.25;13.00;;;;;16.96;69.01;100285.66;5073958;28;45400;-61
2021/10/20 09:12:46;;;;;;;;;13.75;13.25;;;;;16.98;69.10;100291.59;5074979;28;45360;-61
2021/10/20 09:15:17;;;;;;;;;15.75;14.25;;;;;17.00;69.14;100286.94;5074580;28;46243;-61
2021/10/20 09:17:50;;;;;;;;;16.25;14.00;;;;;17.02;69.14;100284.91;5073719;28;45796;-61
2021/10/20 09:20:29;;;;;;;;;12.50;11.75;;;;;17.05;69.10;100286.41;5075006;28;45690;-62
2021/10/20 09:23:08;;;;;;;;;12.25;12.25;;;;;17.07;69.16;100279.06;5074682;28;45402;-61
2021/10/20 09:25:42;;;;;;;;;13.00;12.25;;;;;17.08;69.01;100269.25;5073838;28;45535;-61
2021/10/20 09:28:13;;;;;;;;;13.00;13.00;;;;;17.10;69.55;100273.41;5078523;28;46118;-61
2021/10/20 09:30:39;;;;;;;;;14.50;11.50;;;;;17.13;69.46;100272.19;5073093;27;46149;-61
2021/10/20 09:33:06;;;;;;;;;15.50;14.00;;;;;17.14;69.56;100268.53;5076690;28;45644;-61
2021/10/20 09:35:32;;;;;;;;;15.50;14.00;;;;;17.15;69.40;100265.69;5077038;28;46253;-61
2021/10/20 09:38:00;;;;;;;;;16.25;15.50;;;;;17.15;69.53;100265.69;5077136;28;45998;-61
2021/10/20 09:40:40;;;;;;;;;17.50;14.75;;;;;17.18;69.80;100264.50;5078243;28;45275;-62
2021/10/20 09:43:06;;;;;;;;;17.25;14.00;;;;;17.19;69.76;100255.53;5076588;28;45487;-61
2021/10/20 09:45:36;;;;;;;;;18.75;16.25;;;;;17.21;69.96;100258.81;5078080;27;46237;-61
2021/10/20 09:48:10;;;;;;;;;13.75;12.75;;;;;17.24;69.94;100266.41;5076558;28;45426;-61
2021/10/20 09:50:56;;;;;;;;;14.50;14.00;;;;;17.26;70.05;100260.91;5078073;27;45296;-61
2021/10/20 09:53:23;;;;;;;;;18.75;16.75;;;;;17.26;70.02;100256.41;5077870;28;45437;-61
2021/10/20 09:55:49;;;;;;;;;18.00;15.50;;;;;17.28;70.12;100258.88;5076673;28;45425;-60
2021/10/20 09:58:14;;;;;;;;;19.75;16.00;;;;;17.31;70.25;100258.50;5059212;28;67009;-60
2021/10/20 10:00:41;;;;;;;;;23.50;18.00;;;;;17.31;70.16;100254.03;5077877;27;45467;-62
2021/10/20 10:03:07;;;;;;;;;19.25;17.00;;;;;17.33;70.30;100261.78;5076320;28;45501;-62
2021/10/20 10:05:33;;;;;;;;;18.75;17.25;;;;;17.35;70.24;100254.47;5077660;28;45556;-61
2021/10/20 10:07:58;;;;;;;;;14.75;13.25;;;;;17.37;70.18;100256.94;5076917;28;66984;-62
2021/10/20 10:10:24;;;;;;;;;16.25;14.00;;;;;17.39;69.83;100252.28;5078022;28;45527;-62
2021/10/20 10:12:52;;;;;;;;;18.00;15.75;;;;;17.40;70.10;100245.94;5076433;28;67254;-61
2021/10/20 10:15:18;;;;;;;;;21.00;16.25;;;;;17.42;70.13;100234.13;5075711;27;46236;-60
2021/10/20 10:17:43;;;;;;;;;15.50;13.75;;;;;17.44;70.12;100244.56;5077300;27;45184;-62
2021/10/20 10:20:10;;;;;;;;;18.25;15.25;;;;;17.47;70.40;100236.22;5059608;28;45695;-61
2021/10/20 10:22:50;;;;;;;;;15.00;15.00;;;;;17.49;69.92;100239.47;5077512;28;45584;-62
2021/10/20 10:25:15;;;;;;;;;18.00;16.25;;;;;17.52;70.15;100233.78;5077064;28;46509;-62
2021/10/20 10:27:59;;;;;;;;;16.25;14.75;;;;;17.57;70.13;100246.53;5076460;28;69737;-62
2021/10/20 10:30:25;;;;;;;;;13.25;13.00;;;;;17.59;70.07;100250.63;5071213;28;45398;-62
2021/10/20 10:33:02;;;;;;;;;11.75;11.75;;;;;17.60;70.07;100241.66;5077722;28;45502;-62
2021/10/20 10:35:32;;;;;;;;;20.50;15.25;;;;;17.65;70.13;100233.94;5073547;28;45531;-62
2021/10/20 10:38:02;;;;;;;;;20.00;18.25;;;;;17.69;70.15;100231.72;5074498;27;45505;-61
2021/10/20 10:40:32;;;;;;;;;15.75;14.50;;;;;17.73;70.07;100234.81;5076138;28;45530;-62
2021/10/20 10:42:59;;;;;;;;;15.50;14.75;;;;;17.75;70.00;100222.97;5077295;28;45422;-61
2021/10/20 10:45:25;;;;;;;;;13.75;13.25;;;;;17.78;69.74;100222.59;5058792;28;47118;-60
2021/10/20 10:48:06;;;;;;;;;14.25;14.25;;;;;17.80;69.58;100217.91;5076474;28;63014;-61
2021/10/20 10:50:53;;;;;;;;;19.75;15.00;;;;;17.84;69.64;100215.72;5074834;28;46087;-61
2021/10/20 10:53:50;;;;;;;;;14.00;14.00;;;;;17.87;69.64;100212.66;5076640;27;45442;-61
2021/10/20 10:56:15;;;;;;;;;10.75;9.50;;;;;17.89;69.46;100220.44;5075687;27;46295;-61
2021/10/20 10:58:56;;;;;;;;;13.00;12.25;;;;;17.90;69.43;100214.09;5076280;28;70931;-61
2021/10/20 11:01:44;;;;;;;;;14.25;12.50;;;;;17.93;69.27;100198.59;5076614;28;45326;-62
2021/10/20 11:04:21;;;;;;;;;14.00;12.75;;;;;17.97;69.59;100190.25;5074580;27;45379;-61
2021/10/20 11:06:49;;;;;;;;;15.00;13.25;;;;;18.02;69.26;100190.50;5076669;28;46281;-61
2021/10/20 11:09:15;;;;;;;;;11.25;11.25;;;;;18.05;69.30;100190.09;5076667;28;45499;-61